This is the latest recevied weather packets stored in our database for station/object K0BL. If no packets are shown the sender has not sent any weather packets the latest 10 day(s).
| Time | Temp. | Humidity | Pressure | Rain* | Wind** | Luminosity | Snow |
|---|---|---|---|---|---|---|---|
| 1777385348 | 10.56° C | 71% | 1014.1 hPa | 0 mm | - | 462 W/m² | - |
| 1777384451 | 10.56° C | 72% | 1013.6 hPa | 0 mm | - | 299 W/m² | - |
| 1777379638 | 9.44° C | 80% | 1012.9 hPa | 0 mm | - | 81 W/m² | - |
| 1777377538 | 9.44° C | 82% | 1012.8 hPa | 0 mm | - | 21 W/m² | - |
| 1777376036 | 9.44° C | 81% | 1012.6 hPa | 0 mm | - | 6 W/m² | - |
| 1777374534 | 9.44° C | 81% | 1012.1 hPa | 0 mm | - | 0 W/m² | - |
| 1777372733 | 9.44° C | 81% | 1011.7 hPa | 0 mm | - | 0 W/m² | - |
| 1777371832 | 10° C | 81% | 1011.7 hPa | 0 mm | - | 0 W/m² | - |
| 1777371232 | 10° C | 82% | 1011.5 hPa | 0 mm | - | 0 W/m² | - |
| 1777368230 | 10° C | 81% | 1011.3 hPa | 0 mm | - | 0 W/m² | - |
| 1777366424 | 10° C | 81% | 1010.8 hPa | 0 mm | - | 0 W/m² | - |
| 1777363721 | 10.56° C | 81% | 1010 hPa | 0 mm | - | 0 W/m² | - |
| 1777362218 | 10.56° C | 80% | 1009.8 hPa | 0 mm | - | 0 W/m² | - |
| 1777357710 | 11.11° C | 79% | 1009.3 hPa | 0 mm | - | 0 W/m² | - |
| 1777356810 | 11.11° C | 79% | 1009.3 hPa | 0 mm | - | 0 W/m² | - |
| 1777355910 | 11.11° C | 78% | 1009.1 hPa | 0 mm | - | 0 W/m² | - |
| 1777355311 | 11.67° C | 78% | 1009.1 hPa | 0 mm | - | 0 W/m² | - |
| 1777352608 | 11.67° C | 79% | 1008.6 hPa | 0 mm | - | 0 W/m² | - |
| 1777352308 | 11.67° C | 79% | 1008.6 hPa | 0 mm | - | 0 W/m² | - |
| 1777352008 | 11.67° C | 79% | 1008.6 hPa | 0 mm | - | 0 W/m² | - |
| 1777351408 | 12.22° C | 79% | 1008.5 hPa | 0 mm | - | 0 W/m² | - |
| 1777350509 | 12.22° C | 78% | 1008.1 hPa | 0 mm | - | 0 W/m² | - |
| 1777349605 | 12.22° C | 78% | 1007.9 hPa | 0 mm | - | 0 W/m² | - |
| 1777347807 | 12.78° C | 77% | 1007.6 hPa | 0 mm | - | 0 W/m² | - |
| 1777346604 | 12.78° C | 76% | 1007.2 hPa | 0 mm | - | 0 W/m² | - |
* Rain latest hour (hover to see other rain measurements)
** Current wind speed in m/s (hover to see current wind gust speed)